createdAt,value
2022-08-21T00:01:54.198Z,98943.56
2022-08-21T00:04:22.630Z,98946.25
2022-08-21T00:06:52.407Z,98940.84
2022-08-21T00:09:20.754Z,98944.00
2022-08-21T00:11:48.993Z,98945.22
2022-08-21T00:14:17.557Z,98942.44
2022-08-21T00:16:45.077Z,98943.59
2022-08-21T00:19:12.643Z,98946.78
2022-08-21T00:21:40.268Z,98948.75
2022-08-21T00:24:12.459Z,98948.81
2022-08-21T00:26:40.368Z,98950.41
2022-08-21T00:29:07.872Z,98953.50
2022-08-21T00:31:35.358Z,98949.59
2022-08-21T00:34:03.222Z,98953.50
2022-08-21T00:36:31.265Z,98960.16
2022-08-21T00:38:58.779Z,98952.84
2022-08-21T00:41:38.399Z,98956.41
2022-08-21T00:44:10.818Z,98962.63
2022-08-21T00:46:39.735Z,98958.38
2022-08-21T00:49:08.660Z,98963.88
2022-08-21T00:52:11.206Z,98967.34
2022-08-21T00:54:45.839Z,98964.34
2022-08-21T00:57:18.658Z,98971.78
2022-08-21T00:59:51.021Z,98967.88
2022-08-21T01:02:19.531Z,98964.88
2022-08-21T01:04:47.808Z,98969.59
2022-08-21T01:07:15.494Z,98975.50
2022-08-21T01:09:43.507Z,98971.94
2022-08-21T01:12:12.845Z,98968.03
2022-08-21T01:14:43.969Z,98974.97
2022-08-21T01:17:14.978Z,98967.47
2022-08-21T01:19:42.960Z,98971.06
2022-08-21T01:22:11.180Z,98981.22
2022-08-21T01:24:38.854Z,98985.91
2022-08-21T01:27:06.910Z,98988.22
2022-08-21T01:29:57.847Z,98984.09
2022-08-21T01:32:26.524Z,98979.94
2022-08-21T01:34:54.454Z,98976.78
2022-08-21T01:37:23.603Z,98983.78
2022-08-21T01:39:51.189Z,98985.41
2022-08-21T01:42:19.194Z,98990.06
2022-08-21T01:44:46.723Z,98973.22
2022-08-21T01:47:16.313Z,98984.09
2022-08-21T01:49:46.513Z,98992.34
2022-08-21T01:52:14.558Z,98990.34
2022-08-21T01:54:42.970Z,98990.72
2022-08-21T01:57:10.991Z,98992.63
2022-08-21T01:59:38.675Z,98991.38
2022-08-21T02:02:06.530Z,98995.69
2022-08-21T02:04:34.527Z,98997.97
2022-08-21T02:07:02.916Z,99006.16
2022-08-21T02:09:30.415Z,98992.69
2022-08-21T02:11:58.806Z,98989.13
2022-08-21T02:14:32.313Z,99003.16
2022-08-21T02:17:08.847Z,98999.19
2022-08-21T02:19:40.273Z,99005.69
2022-08-21T02:22:10.672Z,99010.75
2022-08-21T02:24:54.091Z,99005.13
2022-08-21T02:27:26.768Z,99004.16
2022-08-21T02:29:57.480Z,99011.44
2022-08-21T02:32:25.533Z,98998.66
2022-08-21T02:34:53.504Z,99003.22
2022-08-21T02:37:21.113Z,99001.81
2022-08-21T02:39:48.509Z,99011.38
2022-08-21T02:42:16.163Z,99013.78
2022-08-21T02:44:43.632Z,99017.16
2022-08-21T02:47:11.094Z,99018.22
2022-08-21T02:49:38.516Z,99019.00
2022-08-21T02:52:07.153Z,99023.38
2022-08-21T02:54:34.683Z,99031.78
2022-08-21T02:57:02.157Z,99030.78
2022-08-21T02:59:29.664Z,99036.91
2022-08-21T03:01:57.407Z,99029.56
2022-08-21T03:04:24.866Z,99033.22
2022-08-21T03:06:52.420Z,99036.13
2022-08-21T03:09:19.845Z,99040.19
2022-08-21T03:11:47.909Z,99031.22
2022-08-21T03:14:15.304Z,99039.50
2022-08-21T03:16:43.733Z,99028.31
2022-08-21T03:19:11.330Z,99027.56
2022-08-21T03:21:38.993Z,99021.50
2022-08-21T03:24:08.087Z,99026.81
2022-08-21T03:26:35.663Z,99021.41
2022-08-21T03:29:03.423Z,99017.75
2022-08-21T03:31:32.757Z,99030.56
2022-08-21T03:34:00.431Z,99030.81
2022-08-21T03:36:27.949Z,99038.81
2022-08-21T03:38:55.453Z,99035.91
2022-08-21T03:41:23.102Z,99045.34
2022-08-21T03:43:50.656Z,99045.88
2022-08-21T03:46:18.076Z,99048.50
2022-08-21T03:48:45.720Z,99047.22
2022-08-21T03:51:13.552Z,99050.28
2022-08-21T03:53:41.134Z,99052.28
2022-08-21T03:56:09.034Z,99050.88
2022-08-21T03:58:36.625Z,99042.75
2022-08-21T04:01:07.447Z,99059.69
2022-08-21T04:03:37.302Z,99058.69
2022-08-21T04:06:06.128Z,99062.03
2022-08-21T04:08:33.616Z,99054.34
2022-08-21T04:11:01.755Z,99060.72
2022-08-21T04:13:29.365Z,99060.56
2022-08-21T04:15:58.144Z,99063.97
2022-08-21T04:18:25.958Z,99061.50
2022-08-21T04:20:55.266Z,99073.94
2022-08-21T04:23:24.723Z,99076.41
2022-08-21T04:25:54.219Z,99078.56
2022-08-21T04:28:23.312Z,99072.91
2022-08-21T04:30:53.221Z,99075.22
2022-08-21T04:33:22.413Z,99077.03
2022-08-21T04:35:51.365Z,99078.03
2022-08-21T04:38:19.146Z,99071.94
2022-08-21T04:40:46.726Z,99078.06
2022-08-21T04:43:14.263Z,99076.28
2022-08-21T04:45:45.626Z,99078.22
2022-08-21T04:48:14.707Z,99089.19
2022-08-21T04:51:00.917Z,99086.97
2022-08-21T04:53:35.287Z,99086.53
2022-08-21T04:56:14.151Z,99083.81
2022-08-21T04:58:43.649Z,99081.06
2022-08-21T05:01:17.280Z,99088.69
2022-08-21T05:03:45.652Z,99074.59
2022-08-21T05:06:16.445Z,99073.38
2022-08-21T05:08:46.208Z,99074.59
2022-08-21T05:11:14.505Z,99072.03
2022-08-21T05:13:44.627Z,99072.44
2022-08-21T05:16:12.119Z,99075.00
2022-08-21T05:18:39.979Z,99068.88
2022-08-21T05:21:07.533Z,99062.19
2022-08-21T05:23:35.014Z,99065.94
2022-08-21T05:26:02.899Z,99080.13
2022-08-21T05:28:30.419Z,99075.47
2022-08-21T05:30:57.900Z,99071.19
2022-08-21T05:33:25.630Z,99071.72
2022-08-21T05:35:56.974Z,99079.94
2022-08-21T05:38:29.614Z,99077.47
2022-08-21T05:40:57.153Z,99063.69
2022-08-21T05:43:24.729Z,99065.19
2022-08-21T05:45:52.150Z,99067.84
2022-08-21T05:48:22.770Z,99069.94
2022-08-21T05:50:51.188Z,99057.22
2022-08-21T05:53:20.718Z,99066.31
2022-08-21T05:55:48.532Z,99058.31
2022-08-21T05:58:18.720Z,99070.28
2022-08-21T06:00:48.651Z,99056.97
2022-08-21T06:03:21.190Z,99064.53
2022-08-21T06:05:49.125Z,99052.47
2022-08-21T06:08:18.067Z,99058.28
2022-08-21T06:10:46.194Z,99054.25
2022-08-21T06:13:15.143Z,99063.53
2022-08-21T06:15:42.992Z,99056.81
2022-08-21T06:18:10.957Z,99063.22
2022-08-21T06:20:39.138Z,99058.38
2022-08-21T06:23:07.009Z,99059.50
2022-08-21T06:25:34.985Z,99048.22
2022-08-21T06:28:05.193Z,99054.22
2022-08-21T06:30:33.808Z,99046.16
2022-08-21T06:33:01.449Z,99051.34
2022-08-21T06:35:30.246Z,99051.88
2022-08-21T06:37:58.722Z,99049.31
2022-08-21T06:40:30.360Z,99043.84
2022-08-21T06:43:07.321Z,99047.91
2022-08-21T06:45:34.916Z,99034.31
2022-08-21T06:48:02.605Z,99035.94
2022-08-21T06:50:31.272Z,99032.41
2022-08-21T06:53:13.661Z,99043.19
2022-08-21T06:55:41.752Z,99028.78
2022-08-21T06:58:10.808Z,99037.03
2022-08-21T07:00:41.795Z,99033.44
2022-08-21T07:03:16.974Z,99024.84
2022-08-21T07:05:44.415Z,99010.22
2022-08-21T07:08:11.921Z,99024.44
2022-08-21T07:10:39.509Z,99027.69
2022-08-21T07:13:07.333Z,99023.34
2022-08-21T07:15:35.320Z,99027.19
2022-08-21T07:18:04.023Z,99029.75
2022-08-21T07:20:32.334Z,99035.47
2022-08-21T07:23:03.555Z,99025.97
2022-08-21T07:25:31.084Z,99021.09
2022-08-21T07:27:58.562Z,99006.94
2022-08-21T07:30:26.093Z,99005.50
2022-08-21T07:32:53.672Z,99015.44
2022-08-21T07:35:21.714Z,99021.16
2022-08-21T07:37:49.253Z,99022.44
2022-08-21T07:40:18.442Z,99012.00
2022-08-21T07:42:48.546Z,99017.38
2022-08-21T07:45:16.976Z,99010.75
2022-08-21T07:47:44.759Z,99008.03
2022-08-21T07:50:13.743Z,99006.47
2022-08-21T07:52:41.898Z,99008.34
2022-08-21T07:55:12.114Z,99005.50
2022-08-21T07:57:40.006Z,99000.31
2022-08-21T08:00:10.995Z,99003.28
2022-08-21T08:02:42.043Z,98997.53
2022-08-21T08:05:12.504Z,99005.81
2022-08-21T08:07:40.548Z,99000.25
2022-08-21T08:10:10.077Z,99007.72
2022-08-21T08:12:40.621Z,99004.13
2022-08-21T08:15:11.746Z,99005.44
2022-08-21T08:17:39.922Z,98994.16
2022-08-21T08:20:09.244Z,98999.56
2022-08-21T08:22:38.892Z,99005.16
2022-08-21T08:25:09.579Z,99001.81
2022-08-21T08:27:38.716Z,99001.13
2022-08-21T08:30:08.620Z,99007.63
2022-08-21T08:32:36.299Z,98997.41
2022-08-21T08:35:05.128Z,98999.28
2022-08-21T08:37:34.775Z,98999.34
2022-08-21T08:40:04.632Z,98992.84
2022-08-21T08:42:36.128Z,98997.94
2022-08-21T08:45:11.866Z,98986.81
2022-08-21T08:47:45.889Z,98995.78
2022-08-21T08:50:38.354Z,98993.84
2022-08-21T08:53:09.920Z,98998.00
2022-08-21T08:55:43.877Z,98990.38
2022-08-21T08:58:23.655Z,98988.25
2022-08-21T09:00:55.274Z,98996.84
2022-08-21T09:03:25.145Z,98981.75
2022-08-21T09:06:15.257Z,98984.03
2022-08-21T09:09:01.022Z,98990.66
2022-08-21T09:11:54.374Z,98957.22
2022-08-21T09:14:59.398Z,98975.41
2022-08-21T09:17:45.502Z,98966.66
2022-08-21T09:20:30.279Z,98974.31
2022-08-21T09:23:16.670Z,98969.91
2022-08-21T09:26:00.608Z,98977.53
2022-08-21T09:28:28.244Z,98958.75
2022-08-21T09:30:57.363Z,98958.53
2022-08-21T09:33:24.906Z,98963.31
2022-08-21T09:35:54.683Z,98966.94
2022-08-21T09:38:33.251Z,98965.53
2022-08-21T09:41:07.820Z,98964.16
2022-08-21T09:43:36.146Z,98959.28
2022-08-21T09:46:25.196Z,98961.22
2022-08-21T09:48:59.684Z,98957.41
2022-08-21T09:51:31.294Z,98956.16
2022-08-21T09:54:08.054Z,98940.25
2022-08-21T09:56:58.047Z,98931.53
2022-08-21T09:59:36.533Z,98935.13
2022-08-21T10:02:27.448Z,98946.25
2022-08-21T10:05:01.154Z,98939.44
2022-08-21T10:07:33.825Z,98931.94
2022-08-21T10:10:15.299Z,98929.66
2022-08-21T10:12:54.975Z,98931.03
2022-08-21T10:15:59.838Z,98933.25
2022-08-21T10:18:53.510Z,98932.50
2022-08-21T10:21:26.642Z,98925.34
2022-08-21T10:24:34.891Z,98929.59
2022-08-21T10:27:30.099Z,98930.03
2022-08-21T10:30:00.939Z,98924.72
2022-08-21T10:32:55.637Z,98922.56
2022-08-21T10:35:31.993Z,98914.53
2022-08-21T10:38:39.239Z,98924.47
2022-08-21T10:41:11.932Z,98920.97
2022-08-21T10:43:51.511Z,98923.00
2022-08-21T10:46:31.095Z,98912.31
2022-08-21T10:49:20.667Z,98920.78
2022-08-21T10:52:03.362Z,98913.44
2022-08-21T10:55:24.799Z,98919.69
2022-08-21T10:57:59.808Z,98908.81
2022-08-21T11:00:44.897Z,98914.38
2022-08-21T11:03:18.610Z,98914.88
2022-08-21T11:05:54.765Z,98909.50
2022-08-21T11:08:43.124Z,98908.22
2022-08-21T11:11:35.863Z,98914.69
2022-08-21T11:14:12.513Z,98908.44
2022-08-21T11:16:47.288Z,98916.63
2022-08-21T11:19:14.638Z,98909.09
2022-08-21T11:21:50.413Z,98915.50
2022-08-21T11:24:42.735Z,98913.66
2022-08-21T11:27:45.317Z,98909.91
2022-08-21T11:30:14.358Z,98905.56
2022-08-21T11:33:17.764Z,98906.44
2022-08-21T11:35:49.154Z,98898.88
2022-08-21T11:38:41.407Z,98899.63
2022-08-21T11:41:27.504Z,98886.00
2022-08-21T11:44:15.543Z,98898.06
2022-08-21T11:46:52.360Z,98892.53
2022-08-21T11:49:47.526Z,98886.69
2022-08-21T11:52:30.379Z,98888.22
2022-08-21T11:55:01.473Z,98888.50
2022-08-21T11:57:55.290Z,98881.78
2022-08-21T12:00:28.174Z,98871.53
2022-08-21T12:03:00.292Z,98882.97
2022-08-21T12:05:36.378Z,98877.88
2022-08-21T12:08:07.220Z,98871.34
2022-08-21T12:10:41.560Z,98878.84
2022-08-21T12:13:23.874Z,98871.00
2022-08-21T12:16:16.008Z,98880.09
2022-08-21T12:18:44.557Z,98864.25
2022-08-21T12:21:22.660Z,98878.09
2022-08-21T12:24:04.772Z,98880.09
2022-08-21T12:26:36.445Z,98875.22
2022-08-21T12:29:18.123Z,98879.13
2022-08-21T12:32:11.088Z,98876.13
2022-08-21T12:34:46.215Z,98868.06
2022-08-21T12:37:23.750Z,98868.34
2022-08-21T12:39:54.187Z,98874.91
2022-08-21T12:42:38.860Z,98867.38
2022-08-21T12:45:18.778Z,98863.59
2022-08-21T12:47:57.165Z,98855.44
2022-08-21T12:50:39.544Z,98867.13
2022-08-21T12:53:20.224Z,98855.84
2022-08-21T12:55:49.380Z,98855.31
2022-08-21T12:58:25.544Z,98864.88
2022-08-21T13:01:18.574Z,98856.56
2022-08-21T13:03:47.756Z,98856.69
2022-08-21T13:06:29.380Z,98856.88
2022-08-21T13:09:08.071Z,98854.63
2022-08-21T13:11:36.628Z,98849.91
2022-08-21T13:14:15.237Z,98859.47
2022-08-21T13:16:46.269Z,98851.72
2022-08-21T13:19:23.915Z,98862.50
2022-08-21T13:21:53.835Z,98858.25
2022-08-21T13:24:46.185Z,98862.84
2022-08-21T13:27:42.128Z,98863.56
2022-08-21T13:30:19.609Z,98850.78
2022-08-21T13:32:52.759Z,98858.06
2022-08-21T13:35:46.446Z,98852.88
2022-08-21T13:38:14.631Z,98858.78
2022-08-21T13:40:50.443Z,98868.16
2022-08-21T13:43:22.545Z,98864.38
2022-08-21T13:45:53.525Z,98871.91
2022-08-21T13:48:23.366Z,98860.38
2022-08-21T13:50:51.080Z,98858.53
2022-08-21T13:53:28.175Z,98873.13
2022-08-21T13:56:00.376Z,98858.38
2022-08-21T13:58:55.868Z,98868.47
2022-08-21T14:01:28.848Z,98864.97
2022-08-21T14:04:01.370Z,98866.38
2022-08-21T14:06:34.246Z,98867.34
2022-08-21T14:09:09.566Z,98875.53
2022-08-21T14:11:38.007Z,98860.28
2022-08-21T14:14:36.589Z,98872.44
2022-08-21T14:17:24.421Z,98867.53
2022-08-21T14:19:52.922Z,98861.53
2022-08-21T14:22:40.450Z,98870.31
2022-08-21T14:25:28.173Z,98862.78
2022-08-21T14:27:57.718Z,98855.50
2022-08-21T14:30:37.552Z,98857.53
2022-08-21T14:33:10.314Z,98868.03
2022-08-21T14:35:38.081Z,98858.75
2022-08-21T14:38:17.518Z,98866.00
2022-08-21T14:40:51.018Z,98865.56
2022-08-21T14:43:20.334Z,98864.63
2022-08-21T14:45:48.667Z,98860.78
2022-08-21T14:48:16.319Z,98857.84
2022-08-21T14:50:43.989Z,98857.69
2022-08-21T14:53:11.873Z,98858.28
2022-08-21T14:55:59.040Z,98863.22
2022-08-21T14:58:26.883Z,98865.38
2022-08-21T15:00:56.379Z,98865.97
2022-08-21T15:03:23.976Z,98858.38
2022-08-21T15:05:52.251Z,98869.94
2022-08-21T15:08:20.106Z,98868.09
2022-08-21T15:11:10.477Z,98879.94
2022-08-21T15:13:37.654Z,98877.16
2022-08-21T15:16:05.253Z,98870.81
2022-08-21T15:18:32.762Z,98873.09
2022-08-21T15:21:00.581Z,98873.84
2022-08-21T15:23:28.169Z,98863.78
2022-08-21T15:25:59.791Z,98885.69
2022-08-21T15:28:31.741Z,98884.75
2022-08-21T15:31:02.090Z,98891.88
2022-08-21T15:33:30.180Z,98882.50
2022-08-21T15:35:58.033Z,98885.53
2022-08-21T15:38:26.179Z,98884.47
2022-08-21T15:40:54.132Z,98880.25
2022-08-21T15:43:29.962Z,98894.94
2022-08-21T15:46:00.959Z,98885.69
2022-08-21T15:48:29.501Z,98882.09
2022-08-21T15:50:57.111Z,98882.22
2022-08-21T15:53:24.569Z,98882.47
2022-08-21T15:55:52.187Z,98880.63
2022-08-21T15:58:21.167Z,98880.44
2022-08-21T16:00:49.083Z,98881.53
2022-08-21T16:03:19.149Z,98893.38
2022-08-21T16:05:49.594Z,98882.84
2022-08-21T16:08:18.192Z,98891.63
2022-08-21T16:10:51.770Z,98876.16
2022-08-21T16:13:40.032Z,98891.91
2022-08-21T16:16:30.985Z,98891.50
2022-08-21T16:19:36.680Z,98892.81
2022-08-21T16:22:19.956Z,98889.50
2022-08-21T16:25:09.934Z,98883.97
2022-08-21T16:28:01.922Z,98889.72
2022-08-21T16:31:09.690Z,98891.09
2022-08-21T16:37:26.948Z,98889.78
2022-08-21T16:43:13.744Z,98882.53
2022-08-21T16:45:43.465Z,98890.63
2022-08-21T16:48:11.229Z,98889.97
2022-08-21T16:50:40.234Z,98889.00
2022-08-21T16:53:08.155Z,98880.13
2022-08-21T16:55:36.919Z,98888.78
2022-08-21T16:58:13.762Z,98887.34
2022-08-21T17:00:41.555Z,98877.63
2022-08-21T17:03:16.825Z,98884.16
2022-08-21T17:05:45.305Z,98884.13
2022-08-21T17:08:12.846Z,98879.81
2022-08-21T17:10:44.393Z,98890.44
2022-08-21T17:13:12.745Z,98876.72
2022-08-21T17:15:40.700Z,98880.06
2022-08-21T17:18:18.587Z,98883.59
2022-08-21T17:20:46.259Z,98888.78
2022-08-21T17:23:13.976Z,98879.94
2022-08-21T17:25:44.772Z,98896.00
2022-08-21T17:28:19.790Z,98889.78
2022-08-21T17:30:47.645Z,98891.13
2022-08-21T17:33:18.139Z,98892.44
2022-08-21T17:35:46.096Z,98883.50
2022-08-21T17:38:14.845Z,98886.38
2022-08-21T17:40:43.452Z,98889.56
2022-08-21T17:43:13.964Z,98899.88
2022-08-21T17:45:44.168Z,98902.41
2022-08-21T17:48:11.897Z,98893.88
2022-08-21T17:50:40.217Z,98892.34
2022-08-21T17:53:07.772Z,98883.03
2022-08-21T17:55:35.725Z,98890.44
2022-08-21T17:58:04.483Z,98894.44
2022-08-21T18:00:32.702Z,98885.00
2022-08-21T18:03:09.277Z,98891.56
2022-08-21T18:05:36.793Z,98884.69
2022-08-21T18:08:04.244Z,98884.47
2022-08-21T18:10:32.357Z,98886.13
2022-08-21T18:13:04.628Z,98888.44
2022-08-21T18:15:33.920Z,98884.91
2022-08-21T18:18:02.655Z,98882.34
2022-08-21T18:20:30.109Z,98884.44
2022-08-21T18:22:57.745Z,98881.75
2022-08-21T18:25:25.366Z,98884.53
2022-08-21T18:27:53.271Z,98888.06
2022-08-21T18:30:22.903Z,98873.56
2022-08-21T18:32:52.677Z,98887.72
2022-08-21T18:35:20.181Z,98870.91
2022-08-21T18:37:47.812Z,98875.91
2022-08-21T18:40:16.091Z,98873.44
2022-08-21T18:42:58.491Z,98879.78
2022-08-21T18:45:26.405Z,98872.56
2022-08-21T18:47:56.443Z,98878.75
2022-08-21T18:50:27.857Z,98881.88
2022-08-21T18:52:57.137Z,98881.06
2022-08-21T18:55:25.348Z,98878.72
2022-08-21T18:57:55.509Z,98877.97
2022-08-21T19:00:26.900Z,98875.38
2022-08-21T19:02:54.659Z,98879.47
2022-08-21T19:05:24.471Z,98866.97
2022-08-21T19:07:54.078Z,98875.25
2022-08-21T19:10:27.702Z,98877.66
2022-08-21T19:12:59.847Z,98876.03
2022-08-21T19:15:28.816Z,98880.19
2022-08-21T19:17:58.205Z,98878.22
2022-08-21T19:23:29.197Z,98866.06
2022-08-21T19:26:01.124Z,98872.78
2022-08-21T19:28:31.095Z,98870.53
2022-08-21T19:31:06.904Z,98871.06
2022-08-21T19:33:41.752Z,98871.66
2022-08-21T19:36:12.658Z,98871.53
2022-08-21T19:38:40.877Z,98863.13
2022-08-21T19:41:10.952Z,98866.13
2022-08-21T19:43:44.200Z,98862.41
2022-08-21T19:46:15.060Z,98862.69
2022-08-21T19:48:42.646Z,98860.81
2022-08-21T19:51:14.357Z,98861.69
2022-08-21T19:53:41.847Z,98855.66
2022-08-21T19:56:14.922Z,98853.56
2022-08-21T19:58:43.525Z,98854.81
2022-08-21T20:01:16.722Z,98856.34
2022-08-21T20:03:53.961Z,98861.56
2022-08-21T20:06:24.133Z,98853.78
2022-08-21T20:09:10.668Z,98852.66
2022-08-21T20:11:42.700Z,98856.97
2022-08-21T20:14:12.819Z,98853.38
2022-08-21T20:19:28.808Z,98850.72
2022-08-21T20:21:58.774Z,98855.19
2022-08-21T20:24:27.421Z,98854.34
2022-08-21T20:26:55.366Z,98859.50
2022-08-21T20:32:12.309Z,98859.50
2022-08-21T20:34:59.428Z,98848.28
2022-08-21T20:37:37.205Z,98851.03
2022-08-21T20:40:11.197Z,98855.97
2022-08-21T20:42:47.690Z,98860.97
2022-08-21T20:45:24.725Z,98848.03
2022-08-21T20:47:58.473Z,98864.34
2022-08-21T20:50:29.178Z,98861.31
2022-08-21T20:53:05.144Z,98859.56
2022-08-21T20:55:35.785Z,98864.59
2022-08-21T20:58:08.839Z,98863.63
2022-08-21T21:00:43.774Z,98866.94
2022-08-21T21:03:30.352Z,98872.63
2022-08-21T21:06:31.449Z,98859.94
2022-08-21T21:09:11.904Z,98871.84
2022-08-21T21:11:51.980Z,98868.22
2022-08-21T21:14:44.938Z,98865.63
2022-08-21T21:17:38.536Z,98864.19
2022-08-21T21:20:21.439Z,98875.47
2022-08-21T21:23:02.959Z,98877.78
2022-08-21T21:25:43.490Z,98874.44
2022-08-21T21:28:16.970Z,98880.69
2022-08-21T21:30:55.569Z,98879.56
2022-08-21T21:33:35.022Z,98872.59
2022-08-21T21:36:22.683Z,98880.38
2022-08-21T21:38:59.353Z,98879.81
2022-08-21T21:41:34.372Z,98881.63
2022-08-21T21:44:49.585Z,98887.47
2022-08-21T21:47:41.265Z,98884.22
2022-08-21T21:50:26.954Z,98875.16
2022-08-21T21:53:26.598Z,98887.47
2022-08-21T21:56:09.582Z,98890.03
2022-08-21T21:58:42.087Z,98891.06
2022-08-21T22:01:11.104Z,98885.84
2022-08-21T22:03:58.785Z,98886.94
2022-08-21T22:07:06.040Z,98893.44
2022-08-21T22:09:45.715Z,98882.72
2022-08-21T22:12:19.178Z,98880.34
2022-08-21T22:14:47.777Z,98877.31
2022-08-21T22:17:51.023Z,98884.44
2022-08-21T22:20:32.034Z,98871.16
2022-08-21T22:23:01.979Z,98874.66
2022-08-21T22:25:40.350Z,98890.47
2022-08-21T22:28:11.794Z,98891.09
2022-08-21T22:30:50.558Z,98882.78
2022-08-21T22:33:22.410Z,98884.88
2022-08-21T22:35:53.588Z,98884.63
2022-08-21T22:38:36.345Z,98883.81
2022-08-21T22:41:11.251Z,98884.31
2022-08-21T22:43:58.273Z,98887.00
2022-08-21T22:47:06.071Z,98887.53
2022-08-21T22:49:44.334Z,98891.91
2022-08-21T22:52:27.645Z,98898.53
2022-08-21T22:54:59.976Z,98891.13
2022-08-21T22:57:36.068Z,98895.31
2022-08-21T23:00:34.829Z,98894.16
2022-08-21T23:03:02.954Z,98880.09
2022-08-21T23:05:31.069Z,98885.19
2022-08-21T23:08:30.873Z,98894.50
2022-08-21T23:11:05.574Z,98900.00
2022-08-21T23:13:42.256Z,98900.16
2022-08-21T23:16:47.237Z,98905.81
2022-08-21T23:19:38.128Z,98906.59
2022-08-21T23:22:24.131Z,98916.13
2022-08-21T23:25:17.465Z,98917.69
2022-08-21T23:28:03.811Z,98914.50
2022-08-21T23:30:49.477Z,98916.94
2022-08-21T23:33:42.831Z,98926.25
2022-08-21T23:36:49.662Z,98918.22
2022-08-21T23:39:35.623Z,98913.03
2022-08-21T23:42:45.642Z,98916.50
2022-08-21T23:45:37.584Z,98914.03
2022-08-21T23:48:36.613Z,98914.38
2022-08-21T23:51:13.245Z,98916.13
2022-08-21T23:54:16.361Z,98912.81
2022-08-21T23:56:57.555Z,98906.38
2022-08-21T23:59:57.672Z,98910.22
